Time;durP1;ratioP1;P1;durP2;ratioP2;P2;SDS_P1;SDS_P2;PMS_P1;PMS_P2;Temp;Humidity;BMP_temperature;BMP_pressure;BME280_temperature;BME280_humidity;BME280_pressure;Samples;Min_cycle;Max_cycle;Signal;HPM_P1;HPM_P2
2024/03/11 00:01:03;;;;;;;18.35;8.45;;;;;;;5.76;100.00;95705.09;4967201;28;20444;-81
2024/03/11 00:03:29;;;;;;;17.45;7.53;;;;;;;5.71;100.00;95710.31;4967396;28;20434;-80
2024/03/11 00:05:55;;;;;;;18.75;8.13;;;;;;;5.68;100.00;95716.09;4963559;28;20457;-81
2024/03/11 00:08:22;;;;;;;19.15;7.97;;;;;;;5.68;100.00;95715.31;4966285;28;20405;-80
2024/03/11 00:10:55;;;;;;;17.67;8.40;;;;;;;5.60;100.00;95719.25;4962150;28;20425;-81
2024/03/11 00:13:22;;;;;;;15.77;7.68;;;;;;;5.56;100.00;95718.19;4962114;28;20416;-82
2024/03/11 00:15:53;;;;;;;16.25;7.60;;;;;;;5.52;100.00;95725.00;4962391;28;20748;-80
2024/03/11 00:18:19;;;;;;;15.18;7.53;;;;;;;5.55;100.00;95729.75;4962665;28;20432;-81
2024/03/11 00:20:48;;;;;;;16.50;7.72;;;;;;;5.64;100.00;95730.03;4962468;28;20422;-81
2024/03/11 00:23:14;;;;;;;16.73;7.30;;;;;;;5.60;100.00;95728.94;4962440;28;20422;-80
2024/03/11 00:25:40;;;;;;;20.10;8.10;;;;;;;5.60;100.00;95736.81;4966759;28;20487;-79
2024/03/11 00:28:08;;;;;;;19.10;8.70;;;;;;;5.59;100.00;95730.78;4973134;28;20416;-78
2024/03/11 00:30:35;;;;;;;19.80;8.48;;;;;;;5.55;100.00;95737.63;4965817;29;20422;-80
2024/03/11 00:33:02;;;;;;;14.63;7.32;;;;;;;5.61;100.00;95747.06;4962092;28;20434;-81
2024/03/11 00:35:28;;;;;;;16.40;7.77;;;;;;;5.58;100.00;95750.19;4961648;28;20462;-81
2024/03/11 00:37:55;;;;;;;17.08;7.50;;;;;;;5.57;100.00;95745.19;4961097;28;20811;-80
2024/03/11 00:40:23;;;;;;;14.32;7.20;;;;;;;5.58;100.00;95757.28;4962353;28;20469;-81
2024/03/11 00:42:49;;;;;;;17.10;7.87;;;;;;;5.73;100.00;95760.72;4961789;28;20467;-81
2024/03/11 00:45:18;;;;;;;16.75;7.80;;;;;;;5.70;100.00;95756.03;4961633;28;20902;-82
2024/03/11 00:47:45;;;;;;;15.52;7.25;;;;;;;5.77;100.00;95764.44;4961743;28;20783;-81
2024/03/11 00:50:13;;;;;;;16.97;7.67;;;;;;;5.84;100.00;95761.56;4974154;28;20567;-82
2024/03/11 00:52:41;;;;;;;10.55;6.47;;;;;;;5.90;100.00;95767.63;4981384;28;20412;-81
2024/03/11 00:55:11;;;;;;;13.57;6.57;;;;;;;5.88;100.00;95774.97;4981445;28;20882;-82
2024/03/11 00:57:45;;;;;;;10.82;6.30;;;;;;;5.74;100.00;95778.06;4985456;28;20429;-81
2024/03/11 01:00:12;;;;;;;13.50;6.35;;;;;;;5.70;100.00;95776.22;4986575;28;20412;-78
2024/03/11 01:02:39;;;;;;;11.82;5.78;;;;;;;5.63;100.00;95776.47;4980609;28;20416;-80
2024/03/11 01:05:06;;;;;;;11.57;5.63;;;;;;;5.61;100.00;95780.41;4981653;28;20439;-81
2024/03/11 01:07:35;;;;;;;13.23;5.78;;;;;;;5.57;100.00;95781.94;4980678;28;20407;-81
2024/03/11 01:10:02;;;;;;;13.77;5.90;;;;;;;5.51;100.00;95788.22;4981165;28;20420;-81
2024/03/11 01:12:29;;;;;;;12.97;5.43;;;;;;;5.48;100.00;95784.31;4981211;28;20546;-81
2024/03/11 01:14:55;;;;;;;9.13;5.45;;;;;;;5.64;100.00;95790.41;4981049;28;20396;-80
2024/03/11 01:17:21;;;;;;;9.47;5.23;;;;;;;5.52;100.00;95806.34;4979947;28;20413;-80
2024/03/11 01:19:48;;;;;;;7.83;4.90;;;;;;;5.47;100.00;95802.94;4982350;28;20408;-81
2024/03/11 01:22:15;;;;;;;9.77;5.40;;;;;;;5.42;100.00;95801.06;4981009;28;20410;-80
2024/03/11 01:24:43;;;;;;;10.35;5.00;;;;;;;5.39;100.00;95802.38;4980371;28;20432;-81
2024/03/11 01:27:14;;;;;;;7.88;4.30;;;;;;;5.34;100.00;95812.84;4979964;28;20416;-81
2024/03/11 01:29:41;;;;;;;10.75;5.18;;;;;;;5.35;100.00;95816.25;4981240;28;20424;-81
2024/03/11 01:32:08;;;;;;;7.68;4.50;;;;;;;5.36;100.00;95812.59;4982865;28;20400;-81
2024/03/11 01:34:35;;;;;;;9.48;4.70;;;;;;;5.31;100.00;95816.00;4976701;28;20405;-81
2024/03/11 01:37:01;;;;;;;7.95;4.40;;;;;;;5.31;100.00;95826.47;4964469;28;20445;-81
2024/03/11 01:39:27;;;;;;;8.57;4.72;;;;;;;5.29;100.00;95825.94;4966107;28;20504;-81
2024/03/11 01:41:55;;;;;;;9.93;5.00;;;;;;;5.32;100.00;95822.81;4960871;28;20914;-80
2024/03/11 01:44:24;;;;;;;9.00;4.65;;;;;;;5.22;100.00;95824.59;4960285;28;20406;-81
2024/03/11 01:46:53;;;;;;;7.87;4.47;;;;;;;5.17;100.00;95827.19;4960474;28;20409;-81
2024/03/11 01:49:21;;;;;;;9.90;4.72;;;;;;;5.06;100.00;95824.50;4960037;28;20464;-81
2024/03/11 01:51:47;;;;;;;8.85;4.90;;;;;;;4.98;100.00;95825.00;4961580;28;20405;-80
2024/03/11 01:54:14;;;;;;;8.63;4.70;;;;;;;4.92;100.00;95828.63;4960872;28;20413;-80
2024/03/11 01:56:40;;;;;;;11.53;5.20;;;;;;;4.86;100.00;95827.03;4960399;28;20460;-81
2024/03/11 01:59:10;;;;;;;9.65;5.07;;;;;;;4.83;100.00;95824.09;4961402;28;20504;-80
2024/03/11 02:01:38;;;;;;;11.52;5.20;;;;;;;4.82;100.00;95827.75;4971612;28;20465;-78
2024/03/11 02:04:04;;;;;;;9.38;4.72;;;;;;;4.73;100.00;95824.06;4974741;28;20413;-78
2024/03/11 02:06:31;;;;;;;16.10;5.47;;;;;;;4.76;100.00;95826.94;4974015;28;20483;-78
2024/03/11 02:08:57;;;;;;;11.20;4.75;;;;;;;4.75;100.00;95827.19;4974510;28;20417;-78
2024/03/11 02:11:24;;;;;;;9.43;4.90;;;;;;;4.70;100.00;95819.31;4974249;28;20452;-78
2024/03/11 02:13:50;;;;;;;12.15;5.10;;;;;;;4.67;100.00;95810.91;4974642;28;20409;-78
2024/03/11 02:16:18;;;;;;;9.05;4.75;;;;;;;4.62;100.00;95823.97;4973797;28;20402;-78
2024/03/11 02:18:44;;;;;;;8.82;4.68;;;;;;;4.54;100.00;95816.56;4973485;28;20410;-79
2024/03/11 02:21:11;;;;;;;9.05;4.45;;;;;;;4.51;100.00;95811.06;4966111;28;20406;-81
2024/03/11 02:23:38;;;;;;;9.57;4.70;;;;;;;4.47;100.00;95817.81;4960530;28;20731;-81
2024/03/11 02:26:06;;;;;;;13.05;6.07;;;;;;;4.43;100.00;95819.38;4960175;28;20406;-81
2024/03/11 02:28:32;;;;;;;10.70;5.00;;;;;;;4.44;100.00;95824.34;4960678;28;20469;-81
2024/03/11 02:30:59;;;;;;;10.98;5.38;;;;;;;4.42;100.00;95836.13;4962841;28;20430;-81
2024/03/11 02:33:25;;;;;;;9.70;4.50;;;;;;;4.38;100.00;95827.97;4960564;28;20545;-81
2024/03/11 02:35:51;;;;;;;10.60;5.38;;;;;;;4.35;100.00;95827.69;4960116;28;20445;-81
2024/03/11 02:38:19;;;;;;;10.45;5.30;;;;;;;4.34;100.00;95826.13;4959846;28;20397;-81
2024/03/11 02:40:47;;;;;;;10.70;6.00;;;;;;;4.34;100.00;95828.72;4960132;28;20446;-80
2024/03/11 02:43:16;;;;;;;13.88;6.03;;;;;;;4.32;100.00;95833.41;4959679;28;20418;-81
2024/03/11 02:45:45;;;;;;;8.73;4.90;;;;;;;4.31;100.00;95832.63;4959287;28;20406;-81
2024/03/11 02:48:11;;;;;;;10.35;5.50;;;;;;;4.27;100.00;95840.22;4960229;28;20779;-81
2024/03/11 02:50:37;;;;;;;11.23;5.65;;;;;;;4.28;100.00;95844.38;4959951;28;20457;-81
2024/03/11 02:53:04;;;;;;;12.85;5.35;;;;;;;4.26;100.00;95845.69;4971323;28;20534;-79
2024/03/11 02:55:31;;;;;;;9.50;5.20;;;;;;;4.21;100.00;95843.78;4971156;28;20764;-81
2024/03/11 02:57:58;;;;;;;11.90;5.60;;;;;;;4.25;100.00;95846.72;4960026;28;20770;-81
2024/03/11 03:00:24;;;;;;;13.48;5.53;;;;;;;4.16;100.00;95845.59;4962988;28;20827;-81
2024/03/11 03:02:51;;;;;;;10.45;5.38;;;;;;;4.14;100.00;95847.66;4965722;28;20406;-81
2024/03/11 03:05:17;;;;;;;11.25;5.78;;;;;;;4.11;100.00;95858.63;4965791;28;20456;-81
2024/03/11 03:07:44;;;;;;;12.90;5.70;;;;;;;4.08;100.00;95859.13;4965890;28;20493;-81
2024/03/11 03:10:10;;;;;;;10.87;5.77;;;;;;;4.11;100.00;95869.91;4967211;28;20425;-82
2024/03/11 03:12:36;;;;;;;9.73;5.60;;;;;;;4.13;100.00;95867.06;4967731;28;20428;-82
2024/03/11 03:15:05;;;;;;;12.25;5.80;;;;;;;4.07;100.00;95876.66;4966299;28;20504;-82
2024/03/11 03:17:33;;;;;;;10.68;5.68;;;;;;;4.01;100.00;95874.25;4965967;28;20815;-81
2024/03/11 03:19:59;;;;;;;12.60;5.72;;;;;;;3.93;100.00;95867.63;4966902;28;20409;-81
2024/03/11 03:22:27;;;;;;;11.13;5.80;;;;;;;3.84;100.00;95872.50;4967537;28;20425;-81
2024/03/11 03:24:54;;;;;;;12.47;6.40;;;;;;;3.81;100.00;95872.22;4967731;28;20815;-81
2024/03/11 03:27:20;;;;;;;12.43;5.97;;;;;;;3.75;100.00;95870.56;4967238;28;20410;-82
2024/03/11 03:29:46;;;;;;;12.73;5.80;;;;;;;3.75;100.00;95873.19;4967699;28;20433;-81
2024/03/11 03:32:18;;;;;;;10.90;6.03;;;;;;;3.65;100.00;95876.47;4968604;28;20393;-82
2024/03/11 03:34:45;;;;;;;11.63;6.30;;;;;;;3.59;100.00;95882.69;4976223;28;20400;-82
2024/03/11 03:37:11;;;;;;;11.88;6.20;;;;;;;3.57;100.00;95881.34;4991113;28;20408;-83
2024/03/11 03:39:37;;;;;;;11.40;6.30;;;;;;;3.54;100.00;95884.44;4998658;28;20407;-80
2024/03/11 03:42:05;;;;;;;13.05;5.90;;;;;;;3.53;100.00;95890.72;4992345;28;20443;-81
2024/03/11 03:44:31;;;;;;;10.38;5.80;;;;;;;3.47;100.00;95895.88;4985826;28;20400;-79
2024/03/11 03:46:57;;;;;;;12.45;6.20;;;;;;;3.40;100.00;95889.22;4988197;28;20412;-81
2024/03/11 03:49:24;;;;;;;11.73;6.10;;;;;;;3.34;100.00;95888.38;4985716;28;20488;-81
2024/03/11 03:51:51;;;;;;;12.10;6.38;;;;;;;3.34;100.00;95887.59;4985433;28;20411;-81
2024/03/11 03:54:18;;;;;;;13.10;6.55;;;;;;;3.31;100.00;95888.84;4985157;28;20403;-80
2024/03/11 03:56:45;;;;;;;9.63;5.90;;;;;;;3.29;100.00;95890.16;4984835;28;20514;-81
2024/03/11 03:59:11;;;;;;;11.98;5.95;;;;;;;3.26;100.00;95896.63;4985304;28;20915;-80
2024/03/11 04:01:37;;;;;;;11.63;5.97;;;;;;;3.28;100.00;95902.44;4985068;28;20422;-80
2024/03/11 04:04:03;;;;;;;10.70;5.82;;;;;;;3.23;100.00;95893.72;4986027;28;20407;-80
2024/03/11 04:06:32;;;;;;;10.32;6.05;;;;;;;3.23;100.00;95896.34;4985430;28;20454;-81
2024/03/11 04:08:58;;;;;;;11.15;5.88;;;;;;;3.19;100.00;95898.63;4985702;28;20953;-80
2024/03/11 04:11:24;;;;;;;9.63;5.50;;;;;;;3.18;100.00;95894.44;4983225;28;20416;-81
2024/03/11 04:13:50;;;;;;;9.88;5.82;;;;;;;3.14;100.00;95908.25;4982483;28;20400;-80
2024/03/11 04:16:16;;;;;;;10.93;5.85;;;;;;;3.10;100.00;95900.88;4982179;28;20407;-79
2024/03/11 04:18:43;;;;;;;9.30;5.40;;;;;;;3.08;100.00;95904.75;4982144;28;20893;-80
2024/03/11 04:21:09;;;;;;;11.23;5.28;;;;;;;3.04;100.00;95890.56;4982533;28;20416;-81
2024/03/11 04:23:38;;;;;;;14.60;5.90;;;;;;;3.02;100.00;95900.47;4982155;28;20496;-79
2024/03/11 04:26:07;;;;;;;9.05;5.47;;;;;;;3.04;100.00;95906.25;4981740;28;20410;-80
2024/03/11 04:28:36;;;;;;;9.88;5.80;;;;;;;3.02;100.00;95903.09;4982121;28;20404;-80
2024/03/11 04:31:03;;;;;;;9.95;5.65;;;;;;;2.98;100.00;95905.41;4982854;28;20455;-81
2024/03/11 04:33:30;;;;;;;9.43;5.35;;;;;;;2.96;100.00;95909.28;4985020;28;20491;-80
2024/03/11 04:35:56;;;;;;;12.98;5.70;;;;;;;2.94;100.00;95904.28;4965792;28;20406;-81
2024/03/11 04:38:22;;;;;;;10.52;5.65;;;;;;;2.89;100.00;95904.22;4964144;28;20413;-82
2024/03/11 04:40:50;;;;;;;9.23;5.43;;;;;;;2.88;100.00;95904.44;4963902;28;20418;-81
2024/03/11 04:43:17;;;;;;;10.20;4.95;;;;;;;2.86;100.00;95907.28;4963600;28;20410;-81
2024/03/11 04:45:43;;;;;;;10.73;5.35;;;;;;;2.81;100.00;95903.81;4963660;28;20406;-81
2024/03/11 04:48:09;;;;;;;8.50;5.43;;;;;;;2.81;100.00;95903.81;4963477;28;20475;-81
2024/03/11 04:50:37;;;;;;;11.05;5.90;;;;;;;2.80;100.00;95905.63;4966015;28;20416;-80
2024/03/11 04:53:05;;;;;;;8.73;5.40;;;;;;;2.84;100.00;95912.00;4988155;28;20454;-82
2024/03/11 04:55:32;;;;;;;12.40;6.03;;;;;;;2.85;100.00;95913.56;4982566;28;20814;-82
2024/03/11 04:58:00;;;;;;;10.05;5.70;;;;;;;2.82;100.00;95915.84;4983716;28;20415;-82
2024/03/11 05:00:27;;;;;;;11.20;5.57;;;;;;;2.77;100.00;95921.81;4982948;28;20420;-82
2024/03/11 05:02:54;;;;;;;9.98;5.50;;;;;;;2.77;100.00;95919.19;4982508;28;20435;-81
2024/03/11 05:05:21;;;;;;;11.68;5.63;;;;;;;2.73;100.00;95918.06;4978259;28;20404;-80
2024/03/11 05:07:49;;;;;;;10.15;5.68;;;;;;;2.69;100.00;95922.19;4976428;28;20439;-80
2024/03/11 05:10:16;;;;;;;10.85;5.90;;;;;;;2.67;100.00;95921.63;4982328;28;20467;-81
2024/03/11 05:12:43;;;;;;;12.25;5.82;;;;;;;2.65;100.00;95927.09;4967463;28;20406;-81
2024/03/11 05:15:12;;;;;;;12.95;5.80;;;;;;;2.60;100.00;95929.63;4968355;28;20775;-80
2024/03/11 05:17:38;;;;;;;9.38;5.40;;;;;;;2.61;100.00;95926.00;4977838;28;20509;-80
2024/03/11 05:20:11;;;;;;;8.80;5.30;;;;;;;2.55;100.00;95928.75;4980237;28;20507;-80
2024/03/11 05:22:37;;;;;;;10.50;5.72;;;;;;;2.48;100.00;95928.88;4980603;28;20439;-83
2024/03/11 05:25:06;;;;;;;9.75;5.57;;;;;;;2.43;100.00;95939.25;4977581;28;20777;-81
2024/03/11 05:27:32;;;;;;;11.15;6.05;;;;;;;2.38;100.00;95946.22;4980143;28;20457;-82
2024/03/11 05:29:59;;;;;;;10.65;5.68;;;;;;;2.36;100.00;95946.44;4980151;28;20532;-82
2024/03/11 05:32:26;;;;;;;9.10;5.35;;;;;;;2.35;100.00;95950.06;4979630;28;20419;-80
2024/03/11 05:34:52;;;;;;;11.32;6.10;;;;;;;2.26;100.00;95947.03;4979833;28;20396;-80
2024/03/11 05:37:20;;;;;;;9.68;5.40;;;;;;;2.26;100.00;95946.25;4980396;28;20852;-80
2024/03/11 05:39:46;;;;;;;12.38;6.20;;;;;;;2.25;100.00;95955.13;4980977;28;20504;-81
2024/03/11 05:42:14;;;;;;;12.93;6.00;;;;;;;2.28;100.00;95954.66;4980840;28;20405;-81
2024/03/11 05:44:40;;;;;;;11.25;6.18;;;;;;;2.29;100.00;95948.41;4980819;28;20453;-81
2024/03/11 05:47:07;;;;;;;11.07;5.97;;;;;;;2.31;100.00;95955.00;4980636;28;21047;-81
2024/03/11 05:49:36;;;;;;;10.43;6.07;;;;;;;2.30;100.00;95961.22;4981012;28;20412;-83
2024/03/11 05:52:03;;;;;;;13.30;6.38;;;;;;;2.27;100.00;95966.91;4981052;28;20456;-81
2024/03/11 05:54:30;;;;;;;14.38;6.18;;;;;;;2.25;100.00;95973.41;4981877;28;20440;-80
2024/03/11 05:56:56;;;;;;;15.23;6.97;;;;;;;2.22;100.00;95971.25;4979468;28;20412;-80
2024/03/11 05:59:23;;;;;;;13.85;6.63;;;;;;;2.24;100.00;95970.00;4979498;28;20403;-81
2024/03/11 06:01:49;;;;;;;12.88;6.47;;;;;;;2.24;100.00;95980.44;4980563;28;20766;-80
2024/03/11 06:04:16;;;;;;;10.70;6.13;;;;;;;2.26;100.00;95983.59;4981870;28;20423;-79
2024/03/11 06:06:45;;;;;;;11.90;6.30;;;;;;;2.25;100.00;95984.63;4980402;28;20418;-80
2024/03/11 06:09:11;;;;;;;10.93;5.88;;;;;;;2.30;100.00;95989.16;4980877;28;20457;-80
2024/03/11 06:11:40;;;;;;;15.93;6.65;;;;;;;2.32;100.00;95989.72;4979167;28;20874;-80
2024/03/11 06:14:07;;;;;;;12.25;6.30;;;;;;;2.32;100.00;96006.19;4978507;28;20427;-80
2024/03/11 06:16:33;;;;;;;10.35;6.28;;;;;;;2.32;100.00;96008.00;4981272;28;20419;-80
2024/03/11 06:19:00;;;;;;;12.02;6.38;;;;;;;2.33;100.00;96020.03;4983384;28;20483;-79
2024/03/11 06:21:28;;;;;;;11.13;5.60;;;;;;;2.37;100.00;96017.72;4980769;28;20427;-81
2024/03/11 06:23:57;;;;;;;10.90;5.75;;;;;;;2.40;100.00;96028.53;4979459;28;20477;-79
2024/03/11 06:26:24;;;;;;;9.48;5.65;;;;;;;2.42;100.00;96026.44;4975979;28;20445;-78
2024/03/11 06:28:50;;;;;;;10.43;5.72;;;;;;;2.43;100.00;96037.69;4974142;28;20401;-78
2024/03/11 06:31:17;;;;;;;11.15;5.72;;;;;;;2.44;100.00;96034.84;4977070;28;20798;-79
2024/03/11 06:33:43;;;;;;;10.40;5.47;;;;;;;2.52;100.00;96036.31;4981756;28;20679;-79
2024/03/11 06:36:10;;;;;;;11.73;5.53;;;;;;;2.61;100.00;96040.94;4982748;28;20411;-81
2024/03/11 06:38:36;;;;;;;11.13;6.03;;;;;;;2.66;100.00;96035.00;4981779;28;20451;-79
2024/03/11 06:41:03;;;;;;;14.23;6.55;;;;;;;2.81;100.00;96052.75;4983504;28;20773;-78
2024/03/11 06:43:32;;;;;;;17.30;6.88;;;;;;;2.90;100.00;96043.50;4983767;28;20416;-81
2024/03/11 06:45:58;;;;;;;12.75;6.20;;;;;;;3.08;100.00;96056.38;4981887;28;20951;-82
2024/03/11 06:48:24;;;;;;;14.23;6.15;;;;;;;3.28;100.00;96046.25;4981322;28;20408;-80
2024/03/11 06:50:51;;;;;;;11.82;5.70;;;;;;;3.49;100.00;96049.97;4980275;28;20873;-81
2024/03/11 06:53:17;;;;;;;11.32;5.43;;;;;;;3.67;100.00;96054.97;4980396;28;20400;-80
2024/03/11 06:55:45;;;;;;;10.10;4.82;;;;;;;3.76;100.00;96055.34;4980725;28;20416;-82
2024/03/11 06:58:13;;;;;;;11.82;4.82;;;;;;;3.87;100.00;96059.69;4981071;28;20418;-81
2024/03/11 07:00:39;;;;;;;8.80;4.28;;;;;;;4.06;100.00;96060.97;4981296;28;20755;-82
2024/03/11 07:03:05;;;;;;;11.20;4.38;;;;;;;4.12;100.00;96064.47;4981065;28;20400;-81
2024/03/11 07:05:33;;;;;;;8.10;4.18;;;;;;;4.28;100.00;96066.25;4982540;28;20400;-81
2024/03/11 07:08:06;;;;;;;7.90;4.40;;;;;;;4.50;100.00;96071.50;4983108;28;20407;-82
2024/03/11 07:10:32;;;;;;;9.23;4.20;;;;;;;4.82;100.00;96069.72;4984354;28;20427;-82
2024/03/11 07:12:59;;;;;;;6.83;3.57;;;;;;;4.72;100.00;96074.88;4991012;28;20515;-81
2024/03/11 07:15:28;;;;;;;7.72;3.65;;;;;;;4.82;100.00;96077.59;4994420;28;20416;-82
2024/03/11 07:17:54;;;;;;;5.03;3.50;;;;;;;4.87;100.00;96074.25;4985769;28;20408;-82
2024/03/11 07:20:23;;;;;;;7.82;3.70;;;;;;;4.88;100.00;96075.84;4977307;28;20410;-81
2024/03/11 07:22:50;;;;;;;9.35;4.00;;;;;;;4.81;100.00;96072.63;4981025;28;20415;-82
2024/03/11 07:25:17;;;;;;;6.95;3.50;;;;;;;4.73;100.00;96075.69;4980584;28;20404;-81
2024/03/11 07:27:50;;;;;;;8.18;3.67;;;;;;;4.77;100.00;96084.63;4982584;28;20432;-83
2024/03/11 07:30:22;;;;;;;5.35;3.13;;;;;;;4.76;100.00;96081.19;4980378;28;20507;-85
2024/03/11 07:33:04;;;;;;;8.35;3.08;;;;;;;4.66;100.00;96094.22;4973701;28;20856;-84
2024/03/11 07:35:32;;;;;;;5.38;3.17;;;;;;;4.74;100.00;96088.50;4971801;28;20405;-80
2024/03/11 07:37:58;;;;;;;7.55;3.00;;;;;;;4.80;100.00;96084.13;4979475;28;20410;-81
2024/03/11 07:40:24;;;;;;;4.78;3.00;;;;;;;4.75;100.00;96089.31;4962780;28;20400;-82
2024/03/11 07:42:51;;;;;;;4.88;3.05;;;;;;;4.69;100.00;96098.94;4975310;28;20402;-82
2024/03/11 07:45:20;;;;;;;5.22;2.97;;;;;;;4.70;100.00;96102.38;4978577;28;20424;-82
2024/03/11 07:47:46;;;;;;;6.40;3.17;;;;;;;4.58;100.00;96113.78;4981450;28;20405;-82
2024/03/11 07:50:14;;;;;;;6.93;2.95;;;;;;;4.61;100.00;96115.09;4980949;28;20932;-81
2024/03/11 07:52:41;;;;;;;4.80;2.85;;;;;;;4.72;100.00;96119.44;4979972;28;20491;-81
2024/03/11 07:55:08;;;;;;;5.78;2.95;;;;;;;4.73;100.00;96128.91;4982465;28;20400;-82
2024/03/11 07:57:37;;;;;;;6.53;2.93;;;;;;;4.76;100.00;96136.25;4986343;28;20420;-81
2024/03/11 08:00:09;;;;;;;4.32;3.13;;;;;;;4.89;100.00;96140.31;4982250;28;20502;-81
2024/03/11 08:02:35;;;;;;;3.45;2.75;;;;;;;5.04;100.00;96143.91;4982225;28;20412;-81
2024/03/11 08:05:01;;;;;;;7.75;2.90;;;;;;;5.30;100.00;96141.56;4985120;28;20427;-84
2024/03/11 08:07:32;;;;;;;4.65;3.10;;;;;;;5.24;100.00;96151.22;4991225;28;20396;-78
2024/03/11 08:10:00;;;;;;;5.13;3.00;;;;;;;5.21;100.00;96151.69;4991430;28;20426;-78
2024/03/11 08:12:26;;;;;;;5.27;3.40;;;;;;;5.29;100.00;96145.22;4983290;28;20440;-83
2024/03/11 08:14:52;;;;;;;4.55;2.90;;;;;;;5.39;100.00;96153.19;4980904;28;20392;-83
2024/03/11 08:17:19;;;;;;;4.78;2.67;;;;;;;5.50;100.00;96146.19;4979510;28;20762;-82
2024/03/11 08:19:45;;;;;;;3.40;2.50;;;;;;;6.05;100.00;96149.31;4980644;28;20432;-82
2024/03/11 08:22:14;;;;;;;5.35;2.50;;;;;;;6.45;100.00;96146.16;4982795;28;20408;-82
2024/03/11 08:24:41;;;;;;;4.05;2.30;;;;;;;6.47;100.00;96145.88;4990011;28;20412;-83
2024/03/11 08:27:07;;;;;;;4.40;2.30;;;;;;;6.41;100.00;96149.50;4990755;28;20412;-81
2024/03/11 08:29:34;;;;;;;1.98;1.77;;;;;;;6.35;100.00;96151.34;4982682;28;20761;-81
2024/03/11 08:32:01;;;;;;;3.92;2.30;;;;;;;6.47;100.00;96156.38;4982764;28;20436;-82
2024/03/11 08:34:30;;;;;;;2.22;1.80;;;;;;;6.84;100.00;96166.84;4980767;28;20436;-82
2024/03/11 08:36:56;;;;;;;2.78;1.85;;;;;;;7.12;100.00;96170.88;4986571;28;20431;-82
2024/03/11 08:39:24;;;;;;;3.85;1.90;;;;;;;7.26;100.00;96164.88;4981404;28;20431;-81
2024/03/11 08:41:53;;;;;;;2.22;1.92;;;;;;;7.36;100.00;96167.53;4984505;28;20470;-84
2024/03/11 08:44:19;;;;;;;1.75;1.65;;;;;;;7.89;100.00;96172.59;4985632;28;21149;-84
2024/03/11 08:46:46;;;;;;;2.67;1.70;;;;;;;8.38;100.00;96167.56;4988295;28;20436;-84
2024/03/11 08:49:12;;;;;;;3.10;1.67;;;;;;;8.75;100.00;96173.28;4990088;28;20443;-83
2024/03/11 08:51:40;;;;;;;2.37;1.60;;;;;;;9.12;100.00;96156.25;4988453;28;20521;-84
2024/03/11 08:54:07;;;;;;;2.72;1.50;;;;;;;9.23;100.00;96171.00;4988585;28;20488;-81
2024/03/11 08:56:34;;;;;;;1.50;1.40;;;;;;;9.32;100.00;96175.41;4988548;28;20408;-82
2024/03/11 08:59:01;;;;;;;1.20;1.10;;;;;;;9.75;100.00;96188.94;4988884;28;20412;-85
2024/03/11 09:01:33;;;;;;;2.00;1.20;;;;;;;9.87;100.00;96184.06;4990945;28;20464;-84
2024/03/11 09:04:00;;;;;;;2.20;1.30;;;;;;;9.92;100.00;96177.97;4989514;28;20408;-85
2024/03/11 09:06:26;;;;;;;1.30;1.15;;;;;;;10.12;100.00;96169.09;4988420;28;20439;-83
2024/03/11 09:08:52;;;;;;;1.65;1.13;;;;;;;10.20;100.00;96182.53;4988932;28;20400;-83
2024/03/11 09:11:19;;;;;;;4.32;1.13;;;;;;;10.86;100.00;96181.88;4987615;28;20852;-85
2024/03/11 09:13:45;;;;;;;1.33;1.20;;;;;;;11.01;100.00;96188.88;4987221;28;20426;-82
2024/03/11 09:16:12;;;;;;;0.90;0.90;;;;;;;10.79;100.00;96174.28;4986904;28;20404;-84
2024/03/11 09:18:39;;;;;;;1.52;1.00;;;;;;;10.62;100.00;96181.88;4985610;28;20423;-85
2024/03/11 09:21:06;;;;;;;0.88;0.88;;;;;;;10.74;100.00;96190.22;4987488;28;20481;-84
2024/03/11 09:23:32;;;;;;;1.10;1.00;;;;;;;10.65;100.00;96193.75;4992062;28;20435;-85
2024/03/11 09:26:01;;;;;;;2.38;1.20;;;;;;;10.38;100.00;96194.25;4997942;28;20384;-83
2024/03/11 09:28:28;;;;;;;1.33;1.00;;;;;;;10.99;100.00;96188.34;4989551;28;20531;-84
2024/03/11 09:30:56;;;;;;;2.75;1.00;;;;;;;10.73;100.00;96193.16;4982321;28;20444;-81
2024/03/11 09:33:24;;;;;;;1.95;1.08;;;;;;;11.42;100.00;96195.25;4988190;28;20407;-81
2024/03/11 09:35:50;;;;;;;3.38;0.98;;;;;;;11.80;100.00;96187.34;4979743;28;20471;-80
2024/03/11 09:38:16;;;;;;;1.35;0.85;;;;;;;12.01;100.00;96178.78;4982709;28;20405;-80
2024/03/11 09:40:43;;;;;;;1.10;1.00;;;;;;;12.42;100.00;96188.72;4985874;28;20416;-85
2024/03/11 09:43:12;;;;;;;18.65;2.10;;;;;;;12.29;100.00;96186.81;4982409;28;20428;-79
2024/03/11 09:45:40;;;;;;;1.85;0.90;;;;;;;12.32;100.00;96189.69;4980125;28;20414;-78
2024/03/11 09:48:08;;;;;;;1.45;1.05;;;;;;;12.60;100.00;96203.81;4981241;28;20400;-79
2024/03/11 09:50:37;;;;;;;2.70;0.90;;;;;;;12.47;100.00;96204.56;4979518;28;20434;-80
2024/03/11 09:53:06;;;;;;;1.73;0.90;;;;;;;12.87;100.00;96202.25;4983437;28;20405;-79
2024/03/11 09:55:33;;;;;;;0.90;0.75;;;;;;;12.92;100.00;96204.84;4986910;28;20411;-79
2024/03/11 09:58:05;;;;;;;1.80;0.90;;;;;;;12.93;100.00;96212.50;4986699;28;20500;-81
2024/03/11 10:00:33;;;;;;;0.77;0.70;;;;;;;13.01;100.00;96200.41;4986015;28;20471;-79
2024/03/11 10:03:01;;;;;;;1.05;0.80;;;;;;;13.15;100.00;96214.53;4987787;28;20395;-79
2024/03/11 10:05:31;;;;;;;2.45;0.80;;;;;;;13.20;100.00;96198.47;4985399;28;20396;-78
2024/03/11 10:07:59;;;;;;;1.38;0.82;;;;;;;13.60;100.00;96215.47;4987018;28;20396;-78
2024/03/11 10:10:28;;;;;;;1.33;0.75;;;;;;;13.84;100.00;96220.50;4987303;28;20443;-78
2024/03/11 10:12:58;;;;;;;1.50;0.60;;;;;;;14.10;100.00;96215.41;4987673;28;20412;-78
2024/03/11 10:15:29;;;;;;;1.10;0.70;;;;;;;14.29;100.00;96222.13;4986080;28;20408;-80
2024/03/11 10:17:58;;;;;;;1.60;1.00;;;;;;;14.68;100.00;96202.81;4983797;28;20400;-78
2024/03/11 10:20:24;;;;;;;2.20;0.70;;;;;;;14.75;100.00;96212.25;4986262;28;20408;-80
2024/03/11 10:22:51;;;;;;;0.75;0.57;;;;;;;14.63;100.00;96215.47;4985406;28;20432;-80
2024/03/11 10:25:27;;;;;;;1.52;0.80;;;;;;;14.95;100.00;96214.41;4984596;28;20392;-80
2024/03/11 10:27:55;;;;;;;0.65;0.63;;;;;;;15.51;100.00;96216.28;4982755;28;20404;-78
2024/03/11 10:30:23;;;;;;;0.65;0.60;;;;;;;16.01;100.00;96205.25;4987082;28;20423;-78
2024/03/11 10:32:56;;;;;;;0.60;0.60;;;;;;;16.59;100.00;96212.72;4987052;28;20408;-81
2024/03/11 10:35:23;;;;;;;2.60;0.90;;;;;;;16.73;100.00;96215.22;4987618;28;20505;-82
2024/03/11 10:37:54;;;;;;;2.72;0.80;;;;;;;17.00;100.00;96214.81;4985005;28;20418;-77
2024/03/11 10:40:37;;;;;;;1.88;0.60;;;;;;;17.75;100.00;96218.56;4987753;28;20412;-79
2024/03/11 10:43:25;;;;;;;1.45;0.80;;;;;;;17.87;100.00;96207.16;4969401;28;20436;-77
2024/03/11 10:45:51;;;;;;;2.63;0.80;;;;;;;18.34;100.00;96213.09;4980623;28;20451;-79
2024/03/11 10:48:20;;;;;;;1.48;0.80;;;;;;;18.46;100.00;96219.25;4983447;28;20407;-79
2024/03/11 10:50:46;;;;;;;1.55;0.70;;;;;;;18.99;100.00;96208.81;4980216;28;20431;-79
2024/03/11 10:53:19;;;;;;;0.60;0.50;;;;;;;19.45;100.00;96203.03;4979563;28;20881;-80
2024/03/11 10:55:55;;;;;;;0.60;0.50;;;;;;;20.41;100.00;96200.50;4977733;28;20487;-79
2024/03/11 10:58:26;;;;;;;0.65;0.40;;;;;;;21.05;100.00;96200.22;4977669;28;20392;-80
2024/03/11 11:00:53;;;;;;;1.52;0.70;;;;;;;21.14;100.00;96203.53;4979628;28;20766;-79
2024/03/11 11:03:23;;;;;;;1.13;0.57;;;;;;;20.61;100.00;96204.88;4979134;28;20412;-78
2024/03/11 11:05:52;;;;;;;4.57;0.80;;;;;;;20.26;100.00;96201.97;4980280;28;20404;-78
2024/03/11 11:08:22;;;;;;;2.13;0.60;;;;;;;20.77;100.00;96202.22;4980325;28;20440;-79
2024/03/11 11:10:51;;;;;;;0.50;0.43;;;;;;;19.90;100.00;96202.09;4981663;28;20428;-78
2024/03/11 11:13:23;;;;;;;1.10;0.80;;;;;;;18.83;100.00;96206.00;4979720;28;20411;-78
2024/03/11 11:15:50;;;;;;;1.55;0.60;;;;;;;18.43;100.00;96203.84;4979685;28;20415;-80
2024/03/11 11:18:19;;;;;;;2.07;0.70;;;;;;;17.86;100.00;96200.22;4978750;28;20392;-77
2024/03/11 11:20:49;;;;;;;1.08;0.60;;;;;;;17.28;100.00;96196.47;4979907;28;20490;-78
2024/03/11 11:23:25;;;;;;;1.48;0.77;;;;;;;16.15;100.00;96201.31;4980782;28;20416;-78
2024/03/11 11:25:56;;;;;;;1.30;1.00;;;;;;;15.70;100.00;96189.38;4978634;28;20404;-79
2024/03/11 11:28:28;;;;;;;1.00;0.80;;;;;;;15.18;100.00;96183.91;4977666;28;20408;-78